ADDS TAF Board (Experimental) INFO Settings
IDs: Format: Expanded Condensed

KPDX - Portland Intl Arpt, OR, US

Issued at 1414 UTC 24 Jul 2016
Updated at 1634 UTC 24 Jul 2016
Time1553Z 24/17Z 24/18Z 24/19Z 24/20Z 24/21Z 24/22Z 24/23Z 25/00Z 25/01Z 25/02Z 25/03Z 25/04Z 25/05Z
Type OBS PRVL PRVL PRVL PRVL PRVL PRVL PRVL PRVL PRVL PRVL PRVL PRVL PRVL
VIS 10 >6 >6 >6 >6 >6 >6 >6 >6 >6 >6 >6 >6 >6
CIG -- -- -- -- -- -- -- -- -- -- -- -- -- --
Cover FEW SKC SKC SKC SKC SKC SKC SKC SKC SKC SKC SKC SKC SKC
FltCat VFR VFR VFR VFR VFR VFR VFR VFR VFR VFR VFR VFR VFR VFR
WX -- -- -- -- -- -- -- -- -- -- -- -- -- --
WDir VRB 300 300 300 300 300 320 320 320 320 320 320 320 320
WSpd 0 4 4 4 4 4 10 10 10 10 10 10 10 10
WGst -- -- -- -- -- -- 17 17 17 17 17 17 17 17
R03/21
XWnd VRB 4 4 4 4 4 10 10 10 10 10 10 10 10
XGst -- -- -- -- -- -- 17 17 17 17 17 17 17 17
HWnd VRB -1 -1 -1 -1 -1 1 1 1 1 1 1 1 1
HGst -- -- -- -- -- -- 1 1 1 1 1 1 1 1
R10/28
XWnd VRB 0 0 0 0 0 4 4 4 4 4 4 4 4
XGst -- -- -- -- -- -- 6 6 6 6 6 6 6 6
HWnd VRB -4 -4 -4 -4 -4 -9 -9 -9 -9 -9 -9 -9 -9
HGst -- -- -- -- -- -- -16 -16 -16 -16 -16 -16 -16 -16

Raw TAF
KPDX 241414Z 2414/2512 00000KT P6SM BKN017
  FM241500 30004KT P6SM SKC
  FM242200 32010G17KT P6SM SKC
  FM250600 31006KT P6SM FEW250


Raw METAR
KPDX 241553Z 00000KT 10SM FEW020 17/12 A3010 RMK AO2 SLP193 T01720122
KPDX 241453Z 36003KT 10SM FEW018 16/12 A3011 RMK AO2 SLP194 T01560122 51001
KPDX 241427Z 00000KT 10SM SCT017 16/12 A3011 RMK AO2 T01560122
KPDX 241401Z 00000KT 10SM BKN017 15/12 A3011 RMK AO2 T01500122
KPDX 241353Z 00000KT 10SM BKN013 15/12 A3011 RMK AO2 SLP194 T01500122

METAR Board
Radar Display
Forecast Discussion

TAF Board Legend

Potential Impact
Threat None Slight Moderate High
Visibility (sm) ≥5.1 5.1>X≥3 3>X≥1 <1
Ceiling (100 ft) ≥30.1 30.1>X≥10 10>X≥5 <5
Wind Speed (kt) <10 10≤X<20 20≤X<30 ≥30
Wind Gust (kt) <15 15≤X<25 25≤X<35 ≥35
Weather No Wx Reported VCTS,-TS,-FZRA,SN TS,FZRA +TS,+FZRA,+SN